sensor_id;sensor_type;location;lat;lon;timestamp;pressure;altitude;pressure_sealevel;temperature;humidity
57412;BME280;43247;52.828;-8.980;2023-12-20T00:00:33;102599.92;;;8.42;95.12
57412;BME280;43247;52.828;-8.980;2023-12-20T00:01:34;102593.93;;;8.44;95.14
57412;BME280;43247;52.828;-8.980;2023-12-20T00:02:34;102591.81;;;8.46;95.12
57412;BME280;43247;52.828;-8.980;2023-12-20T00:03:34;102593.73;;;8.48;95.10
57412;BME280;43247;52.828;-8.980;2023-12-20T00:04:35;102600.77;;;8.48;95.16
57412;BME280;43247;52.828;-8.980;2023-12-20T00:05:35;102597.42;;;8.48;95.27
57412;BME280;43247;52.828;-8.980;2023-12-20T00:06:35;102598.42;;;8.46;95.52
57412;BME280;43247;52.828;-8.980;2023-12-20T00:07:35;102602.08;;;8.47;95.61
57412;BME280;43247;52.828;-8.980;2023-12-20T00:08:36;102593.32;;;8.45;95.70
57412;BME280;43247;52.828;-8.980;2023-12-20T00:09:36;102590.59;;;8.47;95.65
57412;BME280;43247;52.828;-8.980;2023-12-20T00:10:36;102588.03;;;8.44;95.78
57412;BME280;43247;52.828;-8.980;2023-12-20T00:11:36;102596.28;;;8.46;95.77
57412;BME280;43247;52.828;-8.980;2023-12-20T00:12:37;102596.92;;;8.44;95.86
57412;BME280;43247;52.828;-8.980;2023-12-20T00:13:37;102598.61;;;8.47;95.76
57412;BME280;43247;52.828;-8.980;2023-12-20T00:14:37;102595.47;;;8.45;95.80
57412;BME280;43247;52.828;-8.980;2023-12-20T00:15:37;102591.93;;;8.46;95.79
57412;BME280;43247;52.828;-8.980;2023-12-20T00:16:37;102594.74;;;8.45;95.80
57412;BME280;43247;52.828;-8.980;2023-12-20T00:17:37;102586.95;;;8.44;95.86
57412;BME280;43247;52.828;-8.980;2023-12-20T00:18:38;102593.95;;;8.44;95.88
57412;BME280;43247;52.828;-8.980;2023-12-20T00:19:38;102596.73;;;8.44;95.88
57412;BME280;43247;52.828;-8.980;2023-12-20T00:20:38;102599.61;;;8.43;95.91
57412;BME280;43247;52.828;-8.980;2023-12-20T00:21:38;102596.40;;;8.43;95.93
57412;BME280;43247;52.828;-8.980;2023-12-20T00:22:38;102599.42;;;8.44;95.91
57412;BME280;43247;52.828;-8.980;2023-12-20T00:23:38;102596.35;;;8.45;95.91
57412;BME280;43247;52.828;-8.980;2023-12-20T00:24:39;102600.88;;;8.47;95.81
57412;BME280;43247;52.828;-8.980;2023-12-20T00:25:39;102604.48;;;8.45;95.86
57412;BME280;43247;52.828;-8.980;2023-12-20T00:26:39;102601.41;;;8.45;95.88
57412;BME280;43247;52.828;-8.980;2023-12-20T00:27:40;102599.66;;;8.44;95.82
57412;BME280;43247;52.828;-8.980;2023-12-20T00:28:40;102604.83;;;8.44;95.83
57412;BME280;43247;52.828;-8.980;2023-12-20T00:29:40;102603.41;;;8.45;95.82
57412;BME280;43247;52.828;-8.980;2023-12-20T00:30:41;102608.10;;;8.44;95.83
57412;BME280;43247;52.828;-8.980;2023-12-20T00:31:41;102604.51;;;8.42;95.85
57412;BME280;43247;52.828;-8.980;2023-12-20T00:32:41;102610.42;;;8.45;95.79
57412;BME280;43247;52.828;-8.980;2023-12-20T00:33:41;102609.17;;;8.44;95.76
57412;BME280;43247;52.828;-8.980;2023-12-20T00:34:41;102604.43;;;8.47;95.68
57412;BME280;43247;52.828;-8.980;2023-12-20T00:35:41;102597.06;;;8.45;95.71
57412;BME280;43247;52.828;-8.980;2023-12-20T00:36:43;102599.30;;;8.44;95.75
57412;BME280;43247;52.828;-8.980;2023-12-20T00:37:43;102599.29;;;8.45;95.70
57412;BME280;43247;52.828;-8.980;2023-12-20T00:38:42;102597.81;;;8.44;95.75
57412;BME280;43247;52.828;-8.980;2023-12-20T00:39:43;102597.60;;;8.43;95.77
57412;BME280;43247;52.828;-8.980;2023-12-20T00:40:43;102598.84;;;8.44;95.74
57412;BME280;43247;52.828;-8.980;2023-12-20T00:41:43;102608.66;;;8.45;95.67
57412;BME280;43247;52.828;-8.980;2023-12-20T00:42:43;102606.10;;;8.43;95.78
57412;BME280;43247;52.828;-8.980;2023-12-20T00:43:43;102601.87;;;8.45;95.77
57412;BME280;43247;52.828;-8.980;2023-12-20T00:44:43;102598.56;;;8.47;95.75
57412;BME280;43247;52.828;-8.980;2023-12-20T00:45:44;102600.54;;;8.45;95.86
57412;BME280;43247;52.828;-8.980;2023-12-20T00:46:44;102604.34;;;8.44;95.91
57412;BME280;43247;52.828;-8.980;2023-12-20T00:47:45;102606.61;;;8.44;96.01
57412;BME280;43247;52.828;-8.980;2023-12-20T00:48:44;102599.91;;;8.44;95.97
57412;BME280;43247;52.828;-8.980;2023-12-20T00:49:44;102602.36;;;8.46;95.92
57412;BME280;43247;52.828;-8.980;2023-12-20T00:50:44;102596.35;;;8.44;95.99
57412;BME280;43247;52.828;-8.980;2023-12-20T00:51:46;102602.67;;;8.45;95.94
57412;BME280;43247;52.828;-8.980;2023-12-20T00:52:45;102599.77;;;8.44;95.96
57412;BME280;43247;52.828;-8.980;2023-12-20T00:53:46;102603.71;;;8.44;95.94
57412;BME280;43247;52.828;-8.980;2023-12-20T00:54:46;102607.22;;;8.44;95.97
57412;BME280;43247;52.828;-8.980;2023-12-20T00:55:46;102602.41;;;8.44;95.93
57412;BME280;43247;52.828;-8.980;2023-12-20T00:56:46;102595.08;;;8.44;95.91
57412;BME280;43247;52.828;-8.980;2023-12-20T00:57:46;102601.68;;;8.45;95.89
57412;BME280;43247;52.828;-8.980;2023-12-20T00:58:46;102596.32;;;8.44;95.95
57412;BME280;43247;52.828;-8.980;2023-12-20T00:59:47;102598.83;;;8.44;95.89
57412;BME280;43247;52.828;-8.980;2023-12-20T01:00:47;102597.93;;;8.47;95.78
57412;BME280;43247;52.828;-8.980;2023-12-20T01:01:47;102588.63;;;8.46;95.73
57412;BME280;43247;52.828;-8.980;2023-12-20T01:02:48;102594.44;;;8.43;95.83
57412;BME280;43247;52.828;-8.980;2023-12-20T01:03:48;102589.02;;;8.42;95.85
57412;BME280;43247;52.828;-8.980;2023-12-20T01:04:48;102580.73;;;8.43;95.83
57412;BME280;43247;52.828;-8.980;2023-12-20T01:05:49;102577.58;;;8.44;95.67
57412;BME280;43247;52.828;-8.980;2023-12-20T01:06:49;102580.27;;;8.43;95.72
57412;BME280;43247;52.828;-8.980;2023-12-20T01:07:49;102577.97;;;8.44;95.72
57412;BME280;43247;52.828;-8.980;2023-12-20T01:08:49;102575.00;;;8.43;95.74
57412;BME280;43247;52.828;-8.980;2023-12-20T01:09:49;102575.89;;;8.43;95.77
57412;BME280;43247;52.828;-8.980;2023-12-20T01:10:50;102579.52;;;8.43;95.75
57412;BME280;43247;52.828;-8.980;2023-12-20T01:11:50;102577.94;;;8.42;95.77
57412;BME280;43247;52.828;-8.980;2023-12-20T01:12:50;102573.29;;;8.40;95.90
57412;BME280;43247;52.828;-8.980;2023-12-20T01:13:50;102575.49;;;8.42;95.85
57412;BME280;43247;52.828;-8.980;2023-12-20T01:14:50;102575.17;;;8.41;95.93
57412;BME280;43247;52.828;-8.980;2023-12-20T01:15:50;102578.28;;;8.42;95.88
57412;BME280;43247;52.828;-8.980;2023-12-20T01:16:51;102572.93;;;8.42;95.91
57412;BME280;43247;52.828;-8.980;2023-12-20T01:17:51;102578.01;;;8.43;95.90
57412;BME280;43247;52.828;-8.980;2023-12-20T01:18:52;102581.31;;;8.43;95.91
57412;BME280;43247;52.828;-8.980;2023-12-20T01:19:53;102582.83;;;8.46;95.81
57412;BME280;43247;52.828;-8.980;2023-12-20T01:20:53;102578.72;;;8.46;95.81
57412;BME280;43247;52.828;-8.980;2023-12-20T01:21:53;102576.73;;;8.46;95.81
57412;BME280;43247;52.828;-8.980;2023-12-20T01:22:53;102577.22;;;8.46;95.84
57412;BME280;43247;52.828;-8.980;2023-12-20T01:23:54;102580.68;;;8.48;95.79
57412;BME280;43247;52.828;-8.980;2023-12-20T01:24:54;102577.83;;;8.45;95.93
57412;BME280;43247;52.828;-8.980;2023-12-20T01:25:54;102581.19;;;8.48;95.86
57412;BME280;43247;52.828;-8.980;2023-12-20T01:26:54;102581.83;;;8.49;95.87
57412;BME280;43247;52.828;-8.980;2023-12-20T01:27:55;102579.56;;;8.48;95.93
57412;BME280;43247;52.828;-8.980;2023-12-20T01:28:55;102574.62;;;8.50;95.93
57412;BME280;43247;52.828;-8.980;2023-12-20T01:29:55;102576.76;;;8.47;96.03
57412;BME280;43247;52.828;-8.980;2023-12-20T01:30:55;102576.14;;;8.48;95.98
57412;BME280;43247;52.828;-8.980;2023-12-20T01:31:55;102584.46;;;8.49;95.97
57412;BME280;43247;52.828;-8.980;2023-12-20T01:32:56;102582.79;;;8.49;95.98
57412;BME280;43247;52.828;-8.980;2023-12-20T01:33:57;102582.85;;;8.51;95.93
57412;BME280;43247;52.828;-8.980;2023-12-20T01:34:57;102585.67;;;8.49;96.08
57412;BME280;43247;52.828;-8.980;2023-12-20T01:35:57;102581.46;;;8.50;96.05
57412;BME280;43247;52.828;-8.980;2023-12-20T01:36:58;102586.66;;;8.52;95.99
57412;BME280;43247;52.828;-8.980;2023-12-20T01:37:57;102585.04;;;8.52;96.06
57412;BME280;43247;52.828;-8.980;2023-12-20T01:38:58;102576.96;;;8.53;96.12
57412;BME280;43247;52.828;-8.980;2023-12-20T01:39:58;102576.81;;;8.49;96.27
57412;BME280;43247;52.828;-8.980;2023-12-20T01:40:58;102572.67;;;8.53;96.16
57412;BME280;43247;52.828;-8.980;2023-12-20T01:41:59;102577.04;;;8.54;96.14
57412;BME280;43247;52.828;-8.980;2023-12-20T01:42:59;102572.08;;;8.55;96.10
57412;BME280;43247;52.828;-8.980;2023-12-20T01:43:59;102572.11;;;8.58;96.02
57412;BME280;43247;52.828;-8.980;2023-12-20T01:44:59;102569.15;;;8.56;96.09
57412;BME280;43247;52.828;-8.980;2023-12-20T01:46:00;102570.00;;;8.55;96.15
57412;BME280;43247;52.828;-8.980;2023-12-20T01:47:00;102564.66;;;8.55;96.21
57412;BME280;43247;52.828;-8.980;2023-12-20T01:48:02;102565.70;;;8.55;96.22
57412;BME280;43247;52.828;-8.980;2023-12-20T01:49:02;102558.05;;;8.57;96.17
57412;BME280;43247;52.828;-8.980;2023-12-20T01:50:04;102557.39;;;8.59;96.14
57412;BME280;43247;52.828;-8.980;2023-12-20T01:51:04;102554.20;;;8.59;96.12
57412;BME280;43247;52.828;-8.980;2023-12-20T01:52:04;102552.16;;;8.58;96.16
57412;BME280;43247;52.828;-8.980;2023-12-20T01:53:05;102556.67;;;8.60;96.15
57412;BME280;43247;52.828;-8.980;2023-12-20T01:54:04;102552.74;;;8.59;96.25
57412;BME280;43247;52.828;-8.980;2023-12-20T01:55:05;102555.69;;;8.59;96.25
57412;BME280;43247;52.828;-8.980;2023-12-20T01:56:05;102551.53;;;8.58;96.32
57412;BME280;43247;52.828;-8.980;2023-12-20T01:57:06;102559.93;;;8.64;96.19
57412;BME280;43247;52.828;-8.980;2023-12-20T01:58:06;102569.59;;;8.63;96.29
57412;BME280;43247;52.828;-8.980;2023-12-20T01:59:06;102570.02;;;8.63;96.32
57412;BME280;43247;52.828;-8.980;2023-12-20T02:00:07;102569.38;;;8.63;96.43
57412;BME280;43247;52.828;-8.980;2023-12-20T02:01:06;102572.43;;;8.64;96.48
57412;BME280;43247;52.828;-8.980;2023-12-20T02:02:07;102575.22;;;8.66;96.50
57412;BME280;43247;52.828;-8.980;2023-12-20T02:03:07;102574.27;;;8.66;96.59
57412;BME280;43247;52.828;-8.980;2023-12-20T02:04:07;102571.99;;;8.66;96.61
57412;BME280;43247;52.828;-8.980;2023-12-20T02:05:08;102574.95;;;8.65;96.73
57412;BME280;43247;52.828;-8.980;2023-12-20T02:06:09;102575.80;;;8.67;96.71
57412;BME280;43247;52.828;-8.980;2023-12-20T02:07:09;102575.77;;;8.68;96.70
57412;BME280;43247;52.828;-8.980;2023-12-20T02:08:08;102578.21;;;8.67;96.75
57412;BME280;43247;52.828;-8.980;2023-12-20T02:09:09;102572.85;;;8.67;96.74
57412;BME280;43247;52.828;-8.980;2023-12-20T02:10:10;102576.82;;;8.66;96.78
57412;BME280;43247;52.828;-8.980;2023-12-20T02:11:10;102571.64;;;8.68;96.76
57412;BME280;43247;52.828;-8.980;2023-12-20T02:12:10;102570.11;;;8.65;96.87
57412;BME280;43247;52.828;-8.980;2023-12-20T02:13:10;102572.66;;;8.65;96.78
57412;BME280;43247;52.828;-8.980;2023-12-20T02:14:11;102573.29;;;8.65;96.61
57412;BME280;43247;52.828;-8.980;2023-12-20T02:15:11;102572.95;;;8.66;96.57
57412;BME280;43247;52.828;-8.980;2023-12-20T02:16:12;102571.37;;;8.67;96.60
57412;BME280;43247;52.828;-8.980;2023-12-20T02:17:12;102571.24;;;8.69;96.55
57412;BME280;43247;52.828;-8.980;2023-12-20T02:18:12;102577.07;;;8.69;96.58
57412;BME280;43247;52.828;-8.980;2023-12-20T02:19:14;102576.54;;;8.67;96.59
57412;BME280;43247;52.828;-8.980;2023-12-20T02:20:12;102574.80;;;8.68;96.62
57412;BME280;43247;52.828;-8.980;2023-12-20T02:21:12;102576.37;;;8.68;96.58
57412;BME280;43247;52.828;-8.980;2023-12-20T02:22:12;102569.44;;;8.67;96.67
57412;BME280;43247;52.828;-8.980;2023-12-20T02:23:13;102573.96;;;8.65;96.70
57412;BME280;43247;52.828;-8.980;2023-12-20T02:24:13;102572.26;;;8.66;96.70
57412;BME280;43247;52.828;-8.980;2023-12-20T02:25:13;102568.31;;;8.64;96.75
57412;BME280;43247;52.828;-8.980;2023-12-20T02:26:13;102562.12;;;8.65;96.79
57412;BME280;43247;52.828;-8.980;2023-12-20T02:27:15;102566.70;;;8.65;96.78
57412;BME280;43247;52.828;-8.980;2023-12-20T02:28:14;102568.23;;;8.64;96.84
57412;BME280;43247;52.828;-8.980;2023-12-20T02:29:15;102564.19;;;8.63;96.84
57412;BME280;43247;52.828;-8.980;2023-12-20T02:30:15;102567.88;;;8.63;96.83
57412;BME280;43247;52.828;-8.980;2023-12-20T02:31:15;102560.83;;;8.64;96.81
57412;BME280;43247;52.828;-8.980;2023-12-20T02:32:15;102574.86;;;8.64;96.87
57412;BME280;43247;52.828;-8.980;2023-12-20T02:33:15;102562.09;;;8.65;96.84
57412;BME280;43247;52.828;-8.980;2023-12-20T02:34:15;102564.30;;;8.65;96.88
57412;BME280;43247;52.828;-8.980;2023-12-20T02:35:16;102559.16;;;8.66;96.84
57412;BME280;43247;52.828;-8.980;2023-12-20T02:36:16;102570.27;;;8.63;96.94
57412;BME280;43247;52.828;-8.980;2023-12-20T02:37:16;102563.66;;;8.63;96.94
57412;BME280;43247;52.828;-8.980;2023-12-20T02:38:16;102562.63;;;8.63;96.94
57412;BME280;43247;52.828;-8.980;2023-12-20T02:39:17;102559.91;;;8.63;96.91
57412;BME280;43247;52.828;-8.980;2023-12-20T02:40:16;102561.66;;;8.63;96.90
57412;BME280;43247;52.828;-8.980;2023-12-20T02:41:17;102560.33;;;8.64;96.87
57412;BME280;43247;52.828;-8.980;2023-12-20T02:42:17;102560.10;;;8.66;96.64
57412;BME280;43247;52.828;-8.980;2023-12-20T02:43:17;102560.63;;;8.66;96.61
57412;BME280;43247;52.828;-8.980;2023-12-20T02:44:17;102552.64;;;8.70;96.47
57412;BME280;43247;52.828;-8.980;2023-12-20T02:45:18;102559.71;;;8.70;96.48
57412;BME280;43247;52.828;-8.980;2023-12-20T02:46:18;102558.40;;;8.69;96.51
57412;BME280;43247;52.828;-8.980;2023-12-20T02:47:18;102555.76;;;8.71;96.50
57412;BME280;43247;52.828;-8.980;2023-12-20T02:48:18;102553.37;;;8.68;96.58
57412;BME280;43247;52.828;-8.980;2023-12-20T02:49:19;102552.65;;;8.68;96.57
57412;BME280;43247;52.828;-8.980;2023-12-20T02:50:20;102558.65;;;8.68;96.58
57412;BME280;43247;52.828;-8.980;2023-12-20T02:51:20;102558.88;;;8.69;96.56
57412;BME280;43247;52.828;-8.980;2023-12-20T02:52:20;102557.88;;;8.67;96.59
57412;BME280;43247;52.828;-8.980;2023-12-20T02:53:20;102554.58;;;8.67;96.60
57412;BME280;43247;52.828;-8.980;2023-12-20T02:54:20;102557.05;;;8.68;96.57
57412;BME280;43247;52.828;-8.980;2023-12-20T02:55:20;102558.66;;;8.66;96.62
57412;BME280;43247;52.828;-8.980;2023-12-20T02:56:21;102545.48;;;8.68;96.58
57412;BME280;43247;52.828;-8.980;2023-12-20T02:57:21;102550.42;;;8.68;96.62
57412;BME280;43247;52.828;-8.980;2023-12-20T02:58:21;102548.79;;;8.68;96.61
57412;BME280;43247;52.828;-8.980;2023-12-20T02:59:21;102552.02;;;8.67;96.61
57412;BME280;43247;52.828;-8.980;2023-12-20T03:00:21;102555.92;;;8.67;96.65
57412;BME280;43247;52.828;-8.980;2023-12-20T03:01:21;102557.17;;;8.67;96.68
57412;BME280;43247;52.828;-8.980;2023-12-20T03:02:22;102556.89;;;8.67;96.71
57412;BME280;43247;52.828;-8.980;2023-12-20T03:03:22;102551.01;;;8.67;96.68
57412;BME280;43247;52.828;-8.980;2023-12-20T03:04:22;102553.77;;;8.69;96.66
57412;BME280;43247;52.828;-8.980;2023-12-20T03:05:23;102550.40;;;8.70;96.64
57412;BME280;43247;52.828;-8.980;2023-12-20T03:06:23;102552.45;;;8.70;96.64
57412;BME280;43247;52.828;-8.980;2023-12-20T03:07:23;102553.06;;;8.69;96.75
57412;BME280;43247;52.828;-8.980;2023-12-20T03:08:23;102559.46;;;8.69;96.74
57412;BME280;43247;52.828;-8.980;2023-12-20T03:09:23;102566.67;;;8.69;96.74
57412;BME280;43247;52.828;-8.980;2023-12-20T03:10:23;102564.43;;;8.69;96.79
57412;BME280;43247;52.828;-8.980;2023-12-20T03:11:26;102563.83;;;8.69;96.80
57412;BME280;43247;52.828;-8.980;2023-12-20T03:12:24;102562.74;;;8.68;96.89
57412;BME280;43247;52.828;-8.980;2023-12-20T03:13:24;102564.60;;;8.68;96.87
57412;BME280;43247;52.828;-8.980;2023-12-20T03:14:24;102565.90;;;8.69;96.87
57412;BME280;43247;52.828;-8.980;2023-12-20T03:15:24;102566.04;;;8.68;96.90
57412;BME280;43247;52.828;-8.980;2023-12-20T03:16:25;102565.35;;;8.68;96.91
57412;BME280;43247;52.828;-8.980;2023-12-20T03:17:25;102573.19;;;8.68;96.91
57412;BME280;43247;52.828;-8.980;2023-12-20T03:18:25;102572.57;;;8.68;96.87
57412;BME280;43247;52.828;-8.980;2023-12-20T03:19:25;102573.27;;;8.69;96.85
57412;BME280;43247;52.828;-8.980;2023-12-20T03:20:25;102570.47;;;8.69;96.82
57412;BME280;43247;52.828;-8.980;2023-12-20T03:21:26;102568.12;;;8.69;96.85
57412;BME280;43247;52.828;-8.980;2023-12-20T03:22:26;102570.58;;;8.69;96.85
57412;BME280;43247;52.828;-8.980;2023-12-20T03:23:26;102576.08;;;8.71;96.79
57412;BME280;43247;52.828;-8.980;2023-12-20T03:24:27;102577.74;;;8.69;96.85
57412;BME280;43247;52.828;-8.980;2023-12-20T03:25:27;102573.92;;;8.69;96.87
57412;BME280;43247;52.828;-8.980;2023-12-20T03:26:27;102565.87;;;8.69;96.88
57412;BME280;43247;52.828;-8.980;2023-12-20T03:27:27;102566.92;;;8.69;96.87
57412;BME280;43247;52.828;-8.980;2023-12-20T03:28:29;102574.15;;;8.69;96.88
57412;BME280;43247;52.828;-8.980;2023-12-20T03:29:28;102567.00;;;8.70;96.83
57412;BME280;43247;52.828;-8.980;2023-12-20T03:30:28;102566.20;;;8.70;96.87
57412;BME280;43247;52.828;-8.980;2023-12-20T03:31:28;102562.79;;;8.70;96.81
57412;BME280;43247;52.828;-8.980;2023-12-20T03:32:29;102566.44;;;8.69;96.87
57412;BME280;43247;52.828;-8.980;2023-12-20T03:33:29;102565.02;;;8.69;96.84
57412;BME280;43247;52.828;-8.980;2023-12-20T03:34:29;102558.56;;;8.69;96.86
57412;BME280;43247;52.828;-8.980;2023-12-20T03:35:29;102559.40;;;8.69;96.83
57412;BME280;43247;52.828;-8.980;2023-12-20T03:36:30;102559.43;;;8.70;96.81
57412;BME280;43247;52.828;-8.980;2023-12-20T03:37:30;102551.94;;;8.70;96.82
57412;BME280;43247;52.828;-8.980;2023-12-20T03:38:31;102543.81;;;8.70;96.79
57412;BME280;43247;52.828;-8.980;2023-12-20T03:39:31;102540.10;;;8.70;96.83
57412;BME280;43247;52.828;-8.980;2023-12-20T03:40:31;102532.01;;;8.71;96.80
57412;BME280;43247;52.828;-8.980;2023-12-20T03:41:31;102529.75;;;8.71;96.83
57412;BME280;43247;52.828;-8.980;2023-12-20T03:42:31;102525.68;;;8.72;96.83
57412;BME280;43247;52.828;-8.980;2023-12-20T03:43:31;102525.77;;;8.72;96.86
57412;BME280;43247;52.828;-8.980;2023-12-20T03:44:31;102528.03;;;8.72;96.86
57412;BME280;43247;52.828;-8.980;2023-12-20T03:45:33;102523.94;;;8.72;96.91
57412;BME280;43247;52.828;-8.980;2023-12-20T03:46:32;102527.67;;;8.73;96.91
57412;BME280;43247;52.828;-8.980;2023-12-20T03:47:33;102526.54;;;8.73;96.95
57412;BME280;43247;52.828;-8.980;2023-12-20T03:48:33;102531.30;;;8.74;96.92
57412;BME280;43247;52.828;-8.980;2023-12-20T03:49:33;102528.88;;;8.74;96.94
57412;BME280;43247;52.828;-8.980;2023-12-20T03:50:34;102527.43;;;8.74;96.97
57412;BME280;43247;52.828;-8.980;2023-12-20T03:51:33;102531.28;;;8.73;97.02
57412;BME280;43247;52.828;-8.980;2023-12-20T03:52:33;102531.70;;;8.73;96.99
57412;BME280;43247;52.828;-8.980;2023-12-20T03:53:34;102536.40;;;8.74;96.91
57412;BME280;43247;52.828;-8.980;2023-12-20T03:54:35;102539.00;;;8.74;96.87
57412;BME280;43247;52.828;-8.980;2023-12-20T03:55:34;102544.00;;;8.75;96.84
57412;BME280;43247;52.828;-8.980;2023-12-20T03:56:35;102545.88;;;8.75;96.84
57412;BME280;43247;52.828;-8.980;2023-12-20T03:57:35;102548.99;;;8.76;96.81
57412;BME280;43247;52.828;-8.980;2023-12-20T03:58:35;102553.57;;;8.74;96.87
57412;BME280;43247;52.828;-8.980;2023-12-20T03:59:35;102557.29;;;8.75;96.80
57412;BME280;43247;52.828;-8.980;2023-12-20T04:00:35;102554.98;;;8.74;96.84
57412;BME280;43247;52.828;-8.980;2023-12-20T04:01:35;102557.23;;;8.75;96.88
57412;BME280;43247;52.828;-8.980;2023-12-20T04:02:36;102549.47;;;8.74;96.83
57412;BME280;43247;52.828;-8.980;2023-12-20T04:03:36;102550.91;;;8.74;96.86
57412;BME280;43247;52.828;-8.980;2023-12-20T04:04:36;102554.51;;;8.75;96.85
57412;BME280;43247;52.828;-8.980;2023-12-20T04:05:36;102557.96;;;8.74;96.55
57412;BME280;43247;52.828;-8.980;2023-12-20T04:06:36;102554.94;;;8.77;96.66
57412;BME280;43247;52.828;-8.980;2023-12-20T04:07:36;102546.20;;;8.77;96.79
57412;BME280;43247;52.828;-8.980;2023-12-20T04:08:36;102543.18;;;8.75;96.84
57412;BME280;43247;52.828;-8.980;2023-12-20T04:09:37;102547.34;;;8.75;96.84
57412;BME280;43247;52.828;-8.980;2023-12-20T04:10:37;102542.35;;;8.75;96.80
57412;BME280;43247;52.828;-8.980;2023-12-20T04:11:38;102549.66;;;8.74;96.88
57412;BME280;43247;52.828;-8.980;2023-12-20T04:12:39;102552.79;;;8.74;96.78
57412;BME280;43247;52.828;-8.980;2023-12-20T04:13:38;102555.91;;;8.74;96.84
57412;BME280;43247;52.828;-8.980;2023-12-20T04:14:39;102556.48;;;8.73;96.87
57412;BME280;43247;52.828;-8.980;2023-12-20T04:15:39;102551.33;;;8.74;96.85
57412;BME280;43247;52.828;-8.980;2023-12-20T04:16:39;102547.88;;;8.74;96.84
57412;BME280;43247;52.828;-8.980;2023-12-20T04:17:40;102546.57;;;8.74;96.84
57412;BME280;43247;52.828;-8.980;2023-12-20T04:18:40;102550.80;;;8.75;96.83
57412;BME280;43247;52.828;-8.980;2023-12-20T04:19:40;102538.01;;;8.78;96.71
57412;BME280;43247;52.828;-8.980;2023-12-20T04:20:40;102539.94;;;8.78;96.74
57412;BME280;43247;52.828;-8.980;2023-12-20T04:21:40;102535.97;;;8.77;96.75
57412;BME280;43247;52.828;-8.980;2023-12-20T04:22:40;102537.82;;;8.76;96.82
57412;BME280;43247;52.828;-8.980;2023-12-20T04:23:41;102540.58;;;8.77;96.81
57412;BME280;43247;52.828;-8.980;2023-12-20T04:24:41;102544.56;;;8.77;96.79
57412;BME280;43247;52.828;-8.980;2023-12-20T04:25:41;102541.32;;;8.75;96.92
57412;BME280;43247;52.828;-8.980;2023-12-20T04:26:41;102541.47;;;8.75;96.93
57412;BME280;43247;52.828;-8.980;2023-12-20T04:27:42;102533.01;;;8.76;96.88
57412;BME280;43247;52.828;-8.980;2023-12-20T04:28:43;102532.90;;;8.79;96.82
57412;BME280;43247;52.828;-8.980;2023-12-20T04:29:43;102529.61;;;8.78;96.92
57412;BME280;43247;52.828;-8.980;2023-12-20T04:30:43;102531.49;;;8.79;96.92
57412;BME280;43247;52.828;-8.980;2023-12-20T04:31:43;102539.95;;;8.79;96.93
57412;BME280;43247;52.828;-8.980;2023-12-20T04:32:43;102533.72;;;8.78;97.01
57412;BME280;43247;52.828;-8.980;2023-12-20T04:33:43;102534.91;;;8.80;97.01
57412;BME280;43247;52.828;-8.980;2023-12-20T04:34:44;102530.34;;;8.78;97.14
57412;BME280;43247;52.828;-8.980;2023-12-20T04:35:44;102527.72;;;8.79;97.18
57412;BME280;43247;52.828;-8.980;2023-12-20T04:36:45;102527.68;;;8.84;97.10
57412;BME280;43247;52.828;-8.980;2023-12-20T04:37:44;102527.35;;;8.84;97.21
57412;BME280;43247;52.828;-8.980;2023-12-20T04:38:44;102522.41;;;8.85;97.24
57412;BME280;43247;52.828;-8.980;2023-12-20T04:39:45;102515.18;;;8.86;97.26
57412;BME280;43247;52.828;-8.980;2023-12-20T04:40:45;102522.47;;;8.86;97.35
57412;BME280;43247;52.828;-8.980;2023-12-20T04:41:45;102528.20;;;8.88;97.38
57412;BME280;43247;52.828;-8.980;2023-12-20T04:42:45;102530.49;;;8.88;97.39
57412;BME280;43247;52.828;-8.980;2023-12-20T04:43:45;102529.21;;;8.86;97.47
57412;BME280;43247;52.828;-8.980;2023-12-20T04:44:46;102527.39;;;8.85;97.53
57412;BME280;43247;52.828;-8.980;2023-12-20T04:45:46;102534.54;;;8.85;97.52
57412;BME280;43247;52.828;-8.980;2023-12-20T04:46:47;102522.53;;;8.88;97.29
57412;BME280;43247;52.828;-8.980;2023-12-20T04:47:47;102527.12;;;8.91;97.18
57412;BME280;43247;52.828;-8.980;2023-12-20T04:48:47;102519.56;;;8.91;97.39
57412;BME280;43247;52.828;-8.980;2023-12-20T04:49:47;102516.21;;;8.89;97.49
57412;BME280;43247;52.828;-8.980;2023-12-20T04:50:47;102516.57;;;8.88;97.51
57412;BME280;43247;52.828;-8.980;2023-12-20T04:51:47;102516.62;;;8.88;97.51
57412;BME280;43247;52.828;-8.980;2023-12-20T04:52:48;102514.27;;;8.90;97.44
57412;BME280;43247;52.828;-8.980;2023-12-20T04:53:48;102519.02;;;8.89;97.61
57412;BME280;43247;52.828;-8.980;2023-12-20T04:54:48;102513.12;;;8.89;97.63
57412;BME280;43247;52.828;-8.980;2023-12-20T04:55:48;102515.32;;;8.89;97.64
57412;BME280;43247;52.828;-8.980;2023-12-20T04:56:49;102524.91;;;8.91;97.58
57412;BME280;43247;52.828;-8.980;2023-12-20T04:57:48;102528.07;;;8.92;97.56
57412;BME280;43247;52.828;-8.980;2023-12-20T04:58:48;102523.96;;;8.92;97.61
57412;BME280;43247;52.828;-8.980;2023-12-20T04:59:48;102518.36;;;8.92;97.61
57412;BME280;43247;52.828;-8.980;2023-12-20T05:00:49;102521.96;;;8.92;97.64
57412;BME280;43247;52.828;-8.980;2023-12-20T05:01:49;102523.88;;;8.90;97.67
57412;BME280;43247;52.828;-8.980;2023-12-20T05:02:50;102520.08;;;8.91;97.63
57412;BME280;43247;52.828;-8.980;2023-12-20T05:03:51;102527.48;;;8.91;97.64
57412;BME280;43247;52.828;-8.980;2023-12-20T05:04:51;102523.90;;;8.93;97.56
57412;BME280;43247;52.828;-8.980;2023-12-20T05:05:51;102519.20;;;8.93;97.53
57412;BME280;43247;52.828;-8.980;2023-12-20T05:06:51;102519.70;;;8.93;97.56
57412;BME280;43247;52.828;-8.980;2023-12-20T05:07:52;102528.01;;;8.94;97.54
57412;BME280;43247;52.828;-8.980;2023-12-20T05:08:52;102523.33;;;8.96;97.49
57412;BME280;43247;52.828;-8.980;2023-12-20T05:09:52;102518.66;;;8.97;97.52
57412;BME280;43247;52.828;-8.980;2023-12-20T05:10:54;102514.04;;;8.99;97.38
57412;BME280;43247;52.828;-8.980;2023-12-20T05:11:53;102514.00;;;8.98;97.38
57412;BME280;43247;52.828;-8.980;2023-12-20T05:12:53;102508.63;;;8.95;97.45
57412;BME280;43247;52.828;-8.980;2023-12-20T05:13:54;102501.77;;;8.95;97.46
57412;BME280;43247;52.828;-8.980;2023-12-20T05:14:55;102494.20;;;8.94;97.48